sensor_id;sensor_type;location;lat;lon;timestamp;temperature;humidity
72905;DHT22;61048;52.162;4.516;2023-02-25T00:01:04;14.40;59.10
72905;DHT22;61048;52.162;4.516;2023-02-25T00:03:32;14.40;59.00
72905;DHT22;61048;52.162;4.516;2023-02-25T00:06:01;14.40;59.00
72905;DHT22;61048;52.162;4.516;2023-02-25T00:08:29;14.40;58.90
72905;DHT22;61048;52.162;4.516;2023-02-25T00:10:57;14.40;59.20
72905;DHT22;61048;52.162;4.516;2023-02-25T00:13:24;14.30;59.10
72905;DHT22;61048;52.162;4.516;2023-02-25T00:15:51;14.40;58.90
72905;DHT22;61048;52.162;4.516;2023-02-25T00:18:18;14.40;59.00
72905;DHT22;61048;52.162;4.516;2023-02-25T00:20:45;14.30;59.00
72905;DHT22;61048;52.162;4.516;2023-02-25T00:23:13;14.30;59.00
72905;DHT22;61048;52.162;4.516;2023-02-25T00:25:40;14.30;59.10
72905;DHT22;61048;52.162;4.516;2023-02-25T00:28:07;14.30;59.10
72905;DHT22;61048;52.162;4.516;2023-02-25T00:30:34;14.30;59.10
72905;DHT22;61048;52.162;4.516;2023-02-25T00:33:03;14.30;59.20
72905;DHT22;61048;52.162;4.516;2023-02-25T00:35:32;14.30;59.20
72905;DHT22;61048;52.162;4.516;2023-02-25T00:37:59;14.30;59.10
72905;DHT22;61048;52.162;4.516;2023-02-25T00:40:27;14.30;59.00
72905;DHT22;61048;52.162;4.516;2023-02-25T00:42:54;14.30;59.00
72905;DHT22;61048;52.162;4.516;2023-02-25T00:45:21;14.30;58.90
72905;DHT22;61048;52.162;4.516;2023-02-25T00:47:51;14.30;58.90
72905;DHT22;61048;52.162;4.516;2023-02-25T00:50:18;14.30;59.00
72905;DHT22;61048;52.162;4.516;2023-02-25T00:52:45;14.30;59.00
72905;DHT22;61048;52.162;4.516;2023-02-25T00:55:12;14.30;59.00
72905;DHT22;61048;52.162;4.516;2023-02-25T00:57:41;14.30;59.00
72905;DHT22;61048;52.162;4.516;2023-02-25T01:00:10;14.30;59.10
72905;DHT22;61048;52.162;4.516;2023-02-25T01:02:40;14.30;58.90
72905;DHT22;61048;52.162;4.516;2023-02-25T01:05:07;14.30;59.00
72905;DHT22;61048;52.162;4.516;2023-02-25T01:07:34;14.30;58.90
72905;DHT22;61048;52.162;4.516;2023-02-25T01:10:03;14.30;58.80
72905;DHT22;61048;52.162;4.516;2023-02-25T01:12:30;14.30;59.00
72905;DHT22;61048;52.162;4.516;2023-02-25T01:14:58;14.30;58.80
72905;DHT22;61048;52.162;4.516;2023-02-25T01:17:25;14.20;58.70
72905;DHT22;61048;52.162;4.516;2023-02-25T01:19:52;14.20;58.60
72905;DHT22;61048;52.162;4.516;2023-02-25T01:22:19;14.20;58.70
72905;DHT22;61048;52.162;4.516;2023-02-25T01:24:46;14.20;58.70
72905;DHT22;61048;52.162;4.516;2023-02-25T01:27:13;14.20;58.90
72905;DHT22;61048;52.162;4.516;2023-02-25T01:29:40;14.20;58.70
72905;DHT22;61048;52.162;4.516;2023-02-25T01:32:10;14.20;58.70
72905;DHT22;61048;52.162;4.516;2023-02-25T01:34:38;14.20;58.90
72905;DHT22;61048;52.162;4.516;2023-02-25T01:37:05;14.20;58.90
72905;DHT22;61048;52.162;4.516;2023-02-25T01:39:32;14.20;58.70
72905;DHT22;61048;52.162;4.516;2023-02-25T01:42:02;14.20;58.60
72905;DHT22;61048;52.162;4.516;2023-02-25T01:44:31;14.20;58.80
72905;DHT22;61048;52.162;4.516;2023-02-25T01:46:59;14.20;58.60
72905;DHT22;61048;52.162;4.516;2023-02-25T01:49:35;14.20;58.80
72905;DHT22;61048;52.162;4.516;2023-02-25T01:52:06;14.20;58.60
72905;DHT22;61048;52.162;4.516;2023-02-25T01:54:34;14.20;58.50
72905;DHT22;61048;52.162;4.516;2023-02-25T01:57:04;14.20;58.50
72905;DHT22;61048;52.162;4.516;2023-02-25T01:59:32;14.20;58.60
72905;DHT22;61048;52.162;4.516;2023-02-25T02:01:59;14.20;58.70
72905;DHT22;61048;52.162;4.516;2023-02-25T02:04:29;14.20;58.60
72905;DHT22;61048;52.162;4.516;2023-02-25T02:06:58;14.20;58.70
72905;DHT22;61048;52.162;4.516;2023-02-25T02:09:27;14.10;58.80
72905;DHT22;61048;52.162;4.516;2023-02-25T02:11:55;14.20;58.60
72905;DHT22;61048;52.162;4.516;2023-02-25T02:14:25;14.20;58.70
72905;DHT22;61048;52.162;4.516;2023-02-25T02:17:05;14.10;58.70
72905;DHT22;61048;52.162;4.516;2023-02-25T02:19:48;14.10;58.70
72905;DHT22;61048;52.162;4.516;2023-02-25T02:22:18;14.20;58.80
72905;DHT22;61048;52.162;4.516;2023-02-25T02:25:23;14.20;58.70
72905;DHT22;61048;52.162;4.516;2023-02-25T02:31:25;14.10;58.80
72905;DHT22;61048;52.162;4.516;2023-02-25T02:34:05;14.10;58.80
72905;DHT22;61048;52.162;4.516;2023-02-25T02:36:50;14.10;58.80
72905;DHT22;61048;52.162;4.516;2023-02-25T02:39:24;14.10;58.80
72905;DHT22;61048;52.162;4.516;2023-02-25T02:41:59;14.10;58.70
72905;DHT22;61048;52.162;4.516;2023-02-25T02:44:30;14.10;58.70
72905;DHT22;61048;52.162;4.516;2023-02-25T02:47:04;14.10;58.70
72905;DHT22;61048;52.162;4.516;2023-02-25T02:49:35;14.10;58.80
72905;DHT22;61048;52.162;4.516;2023-02-25T02:52:05;14.10;58.80
72905;DHT22;61048;52.162;4.516;2023-02-25T02:54:34;14.10;58.60
72905;DHT22;61048;52.162;4.516;2023-02-25T02:57:03;14.10;58.50
72905;DHT22;61048;52.162;4.516;2023-02-25T02:59:34;14.10;58.60
72905;DHT22;61048;52.162;4.516;2023-02-25T03:02:12;14.10;58.70
72905;DHT22;61048;52.162;4.516;2023-02-25T03:04:41;14.10;58.70
72905;DHT22;61048;52.162;4.516;2023-02-25T03:07:11;14.10;58.60
72905;DHT22;61048;52.162;4.516;2023-02-25T03:09:42;14.10;58.60
72905;DHT22;61048;52.162;4.516;2023-02-25T03:12:11;14.10;58.70
72905;DHT22;61048;52.162;4.516;2023-02-25T03:14:38;14.10;58.60
72905;DHT22;61048;52.162;4.516;2023-02-25T03:17:10;14.10;58.60
72905;DHT22;61048;52.162;4.516;2023-02-25T03:19:40;14.00;58.60
72905;DHT22;61048;52.162;4.516;2023-02-25T03:22:11;14.00;58.60
72905;DHT22;61048;52.162;4.516;2023-02-25T03:24:42;14.00;58.60
72905;DHT22;61048;52.162;4.516;2023-02-25T03:27:26;14.00;58.50
72905;DHT22;61048;52.162;4.516;2023-02-25T03:29:57;14.00;58.70
72905;DHT22;61048;52.162;4.516;2023-02-25T03:32:29;14.00;58.70
72905;DHT22;61048;52.162;4.516;2023-02-25T03:34:57;14.10;58.80
72905;DHT22;61048;52.162;4.516;2023-02-25T03:37:28;14.00;58.70
72905;DHT22;61048;52.162;4.516;2023-02-25T03:40:00;14.00;58.80
72905;DHT22;61048;52.162;4.516;2023-02-25T03:42:37;14.00;58.80
72905;DHT22;61048;52.162;4.516;2023-02-25T03:45:07;14.00;58.90
72905;DHT22;61048;52.162;4.516;2023-02-25T03:47:37;14.00;58.90
72905;DHT22;61048;52.162;4.516;2023-02-25T03:50:07;14.00;58.80
72905;DHT22;61048;52.162;4.516;2023-02-25T03:52:37;14.00;58.90
72905;DHT22;61048;52.162;4.516;2023-02-25T03:55:05;14.00;58.80
72905;DHT22;61048;52.162;4.516;2023-02-25T03:57:36;14.00;58.90
72905;DHT22;61048;52.162;4.516;2023-02-25T04:00:05;14.00;58.90
72905;DHT22;61048;52.162;4.516;2023-02-25T04:02:42;14.00;58.70
72905;DHT22;61048;52.162;4.516;2023-02-25T04:05:09;14.00;58.80
72905;DHT22;61048;52.162;4.516;2023-02-25T04:07:37;14.00;58.80
72905;DHT22;61048;52.162;4.516;2023-02-25T04:10:05;14.00;58.80
72905;DHT22;61048;52.162;4.516;2023-02-25T04:12:33;14.00;58.70
72905;DHT22;61048;52.162;4.516;2023-02-25T04:15:00;14.00;58.70
72905;DHT22;61048;52.162;4.516;2023-02-25T04:17:27;14.00;58.60
72905;DHT22;61048;52.162;4.516;2023-02-25T04:19:55;14.00;58.60
72905;DHT22;61048;52.162;4.516;2023-02-25T04:22:22;14.00;58.60
72905;DHT22;61048;52.162;4.516;2023-02-25T04:24:49;14.00;58.70
72905;DHT22;61048;52.162;4.516;2023-02-25T04:27:16;14.00;58.50
72905;DHT22;61048;52.162;4.516;2023-02-25T04:29:43;13.90;58.50
72905;DHT22;61048;52.162;4.516;2023-02-25T04:32:10;14.00;58.50
72905;DHT22;61048;52.162;4.516;2023-02-25T04:34:37;13.90;58.50
72905;DHT22;61048;52.162;4.516;2023-02-25T04:37:06;13.90;58.30
72905;DHT22;61048;52.162;4.516;2023-02-25T04:39:33;13.90;58.50
72905;DHT22;61048;52.162;4.516;2023-02-25T04:42:01;13.90;58.60
72905;DHT22;61048;52.162;4.516;2023-02-25T04:44:28;13.90;58.40
72905;DHT22;61048;52.162;4.516;2023-02-25T04:46:55;13.90;58.50
72905;DHT22;61048;52.162;4.516;2023-02-25T04:49:22;13.90;58.40
72905;DHT22;61048;52.162;4.516;2023-02-25T04:51:49;13.90;58.30
72905;DHT22;61048;52.162;4.516;2023-02-25T04:54:18;13.90;58.40
72905;DHT22;61048;52.162;4.516;2023-02-25T04:56:46;13.90;58.50
72905;DHT22;61048;52.162;4.516;2023-02-25T04:59:13;13.90;58.20
72905;DHT22;61048;52.162;4.516;2023-02-25T05:01:41;13.90;58.30
72905;DHT22;61048;52.162;4.516;2023-02-25T05:04:08;13.90;58.30
72905;DHT22;61048;52.162;4.516;2023-02-25T05:06:35;13.90;58.30
72905;DHT22;61048;52.162;4.516;2023-02-25T05:09:04;13.90;58.50
72905;DHT22;61048;52.162;4.516;2023-02-25T05:11:32;13.90;58.20
72905;DHT22;61048;52.162;4.516;2023-02-25T05:13:59;13.90;58.10
72905;DHT22;61048;52.162;4.516;2023-02-25T05:16:26;13.90;58.40
72905;DHT22;61048;52.162;4.516;2023-02-25T05:18:53;13.90;58.30
72905;DHT22;61048;52.162;4.516;2023-02-25T05:21:22;13.90;58.20
72905;DHT22;61048;52.162;4.516;2023-02-25T05:23:50;13.80;58.20
72905;DHT22;61048;52.162;4.516;2023-02-25T05:26:19;13.80;58.30
72905;DHT22;61048;52.162;4.516;2023-02-25T05:28:49;13.80;58.40
72905;DHT22;61048;52.162;4.516;2023-02-25T05:31:15;13.80;58.30
72905;DHT22;61048;52.162;4.516;2023-02-25T05:33:42;13.80;58.40
72905;DHT22;61048;52.162;4.516;2023-02-25T05:36:11;13.80;58.40
72905;DHT22;61048;52.162;4.516;2023-02-25T05:38:38;13.80;58.30
72905;DHT22;61048;52.162;4.516;2023-02-25T05:41:06;13.80;58.30
72905;DHT22;61048;52.162;4.516;2023-02-25T05:43:34;13.80;58.00
72905;DHT22;61048;52.162;4.516;2023-02-25T05:46:03;13.80;57.50
72905;DHT22;61048;52.162;4.516;2023-02-25T05:48:36;13.80;57.90
72905;DHT22;61048;52.162;4.516;2023-02-25T05:51:05;13.80;57.80
72905;DHT22;61048;52.162;4.516;2023-02-25T05:53:32;13.80;57.80
72905;DHT22;61048;52.162;4.516;2023-02-25T05:56:03;13.80;57.90
72905;DHT22;61048;52.162;4.516;2023-02-25T05:58:30;13.80;58.00
72905;DHT22;61048;52.162;4.516;2023-02-25T06:00:56;13.80;58.00
72905;DHT22;61048;52.162;4.516;2023-02-25T06:03:25;13.80;58.10
72905;DHT22;61048;52.162;4.516;2023-02-25T06:05:52;13.80;58.10
72905;DHT22;61048;52.162;4.516;2023-02-25T06:08:18;13.80;58.00
72905;DHT22;61048;52.162;4.516;2023-02-25T06:10:45;13.80;58.00
72905;DHT22;61048;52.162;4.516;2023-02-25T06:13:13;13.80;58.20
72905;DHT22;61048;52.162;4.516;2023-02-25T06:15:41;13.80;58.00
72905;DHT22;61048;52.162;4.516;2023-02-25T06:18:08;13.80;57.70
72905;DHT22;61048;52.162;4.516;2023-02-25T06:20:36;13.70;57.90
72905;DHT22;61048;52.162;4.516;2023-02-25T06:23:03;13.70;57.70
72905;DHT22;61048;52.162;4.516;2023-02-25T06:25:30;13.70;57.80
72905;DHT22;61048;52.162;4.516;2023-02-25T06:27:57;13.70;57.70
72905;DHT22;61048;52.162;4.516;2023-02-25T06:30:25;13.70;57.80
72905;DHT22;61048;52.162;4.516;2023-02-25T06:32:52;13.70;57.50
72905;DHT22;61048;52.162;4.516;2023-02-25T06:35:19;13.70;57.50
72905;DHT22;61048;52.162;4.516;2023-02-25T06:37:49;13.70;57.40
72905;DHT22;61048;52.162;4.516;2023-02-25T06:40:19;13.70;57.70
72905;DHT22;61048;52.162;4.516;2023-02-25T06:42:46;13.70;57.80
72905;DHT22;61048;52.162;4.516;2023-02-25T06:45:13;13.70;57.70
72905;DHT22;61048;52.162;4.516;2023-02-25T06:47:40;13.70;57.80
72905;DHT22;61048;52.162;4.516;2023-02-25T06:50:08;13.70;57.80
72905;DHT22;61048;52.162;4.516;2023-02-25T06:52:35;13.70;57.80
72905;DHT22;61048;52.162;4.516;2023-02-25T06:55:04;13.70;57.60
72905;DHT22;61048;52.162;4.516;2023-02-25T06:57:31;13.70;57.70
72905;DHT22;61048;52.162;4.516;2023-02-25T06:59:58;13.70;57.80
72905;DHT22;61048;52.162;4.516;2023-02-25T07:02:25;13.70;57.80
72905;DHT22;61048;52.162;4.516;2023-02-25T07:04:52;13.70;57.80
72905;DHT22;61048;52.162;4.516;2023-02-25T07:07:19;13.70;57.90
72905;DHT22;61048;52.162;4.516;2023-02-25T07:09:46;13.70;57.90
72905;DHT22;61048;52.162;4.516;2023-02-25T07:12:15;13.80;57.80
72905;DHT22;61048;52.162;4.516;2023-02-25T07:14:41;13.80;57.80
72905;DHT22;61048;52.162;4.516;2023-02-25T07:17:09;13.80;57.80
72905;DHT22;61048;52.162;4.516;2023-02-25T07:19:36;13.80;57.80
72905;DHT22;61048;52.162;4.516;2023-02-25T07:22:03;13.90;57.80
72905;DHT22;61048;52.162;4.516;2023-02-25T07:24:30;13.90;57.80
72905;DHT22;61048;52.162;4.516;2023-02-25T07:26:57;13.90;57.60
72905;DHT22;61048;52.162;4.516;2023-02-25T07:29:26;13.90;57.40
72905;DHT22;61048;52.162;4.516;2023-02-25T07:31:52;14.00;57.50
72905;DHT22;61048;52.162;4.516;2023-02-25T07:34:19;14.00;57.40
72905;DHT22;61048;52.162;4.516;2023-02-25T07:36:46;13.90;57.40
72905;DHT22;61048;52.162;4.516;2023-02-25T07:39:13;14.00;57.10
72905;DHT22;61048;52.162;4.516;2023-02-25T07:41:40;14.00;57.20
72905;DHT22;61048;52.162;4.516;2023-02-25T07:44:07;14.00;57.10
72905;DHT22;61048;52.162;4.516;2023-02-25T07:46:35;14.00;57.10
72905;DHT22;61048;52.162;4.516;2023-02-25T07:49:03;14.00;56.90
72905;DHT22;61048;52.162;4.516;2023-02-25T07:51:30;14.10;57.00
72905;DHT22;61048;52.162;4.516;2023-02-25T07:53:57;14.10;56.90
72905;DHT22;61048;52.162;4.516;2023-02-25T07:56:27;14.10;57.00
72905;DHT22;61048;52.162;4.516;2023-02-25T07:58:54;14.10;56.80
72905;DHT22;61048;52.162;4.516;2023-02-25T08:01:23;14.10;56.40
72905;DHT22;61048;52.162;4.516;2023-02-25T08:03:52;14.00;56.70
72905;DHT22;61048;52.162;4.516;2023-02-25T08:06:20;14.00;56.60
72905;DHT22;61048;52.162;4.516;2023-02-25T08:08:47;14.10;56.30
72905;DHT22;61048;52.162;4.516;2023-02-25T08:11:15;14.10;56.20
72905;DHT22;61048;52.162;4.516;2023-02-25T08:13:42;14.10;56.10
72905;DHT22;61048;52.162;4.516;2023-02-25T08:16:12;14.10;56.20
72905;DHT22;61048;52.162;4.516;2023-02-25T08:18:39;14.10;56.10
72905;DHT22;61048;52.162;4.516;2023-02-25T08:21:08;14.10;56.10
72905;DHT22;61048;52.162;4.516;2023-02-25T08:23:35;14.20;56.00
72905;DHT22;61048;52.162;4.516;2023-02-25T08:26:03;14.20;56.00
72905;DHT22;61048;52.162;4.516;2023-02-25T08:28:30;14.20;55.80
72905;DHT22;61048;52.162;4.516;2023-02-25T08:30:58;14.20;55.90
72905;DHT22;61048;52.162;4.516;2023-02-25T08:33:26;14.30;55.70
72905;DHT22;61048;52.162;4.516;2023-02-25T08:35:54;14.30;55.60
72905;DHT22;61048;52.162;4.516;2023-02-25T08:38:22;14.30;55.50
72905;DHT22;61048;52.162;4.516;2023-02-25T08:40:49;14.40;55.50
72905;DHT22;61048;52.162;4.516;2023-02-25T08:43:18;14.30;55.30
72905;DHT22;61048;52.162;4.516;2023-02-25T08:45:45;14.30;55.50
72905;DHT22;61048;52.162;4.516;2023-02-25T08:48:12;14.30;55.60
72905;DHT22;61048;52.162;4.516;2023-02-25T08:50:39;14.30;55.60
72905;DHT22;61048;52.162;4.516;2023-02-25T08:53:05;14.30;55.60
72905;DHT22;61048;52.162;4.516;2023-02-25T08:55:35;14.20;55.80
72905;DHT22;61048;52.162;4.516;2023-02-25T08:58:04;14.20;55.80
72905;DHT22;61048;52.162;4.516;2023-02-25T09:00:31;14.20;55.60
72905;DHT22;61048;52.162;4.516;2023-02-25T09:02:58;14.20;55.80
72905;DHT22;61048;52.162;4.516;2023-02-25T09:05:25;14.20;55.90
72905;DHT22;61048;52.162;4.516;2023-02-25T09:07:52;14.20;55.80
72905;DHT22;61048;52.162;4.516;2023-02-25T09:10:20;14.20;55.80
72905;DHT22;61048;52.162;4.516;2023-02-25T09:12:49;14.20;55.70
72905;DHT22;61048;52.162;4.516;2023-02-25T09:15:17;14.20;55.40
72905;DHT22;61048;52.162;4.516;2023-02-25T09:17:46;14.10;55.20
72905;DHT22;61048;52.162;4.516;2023-02-25T09:20:13;14.10;55.50
72905;DHT22;61048;52.162;4.516;2023-02-25T09:22:42;14.10;55.40
72905;DHT22;61048;52.162;4.516;2023-02-25T09:25:09;14.00;55.40
72905;DHT22;61048;52.162;4.516;2023-02-25T09:27:37;14.00;55.70
72905;DHT22;61048;52.162;4.516;2023-02-25T09:30:06;14.00;55.70
72905;DHT22;61048;52.162;4.516;2023-02-25T09:32:33;14.10;55.80
72905;DHT22;61048;52.162;4.516;2023-02-25T09:35:00;14.10;55.70
72905;DHT22;61048;52.162;4.516;2023-02-25T09:37:31;14.20;55.60
72905;DHT22;61048;52.162;4.516;2023-02-25T09:39:59;14.20;55.60
72905;DHT22;61048;52.162;4.516;2023-02-25T09:42:30;14.20;55.60
72905;DHT22;61048;52.162;4.516;2023-02-25T09:45:01;14.30;55.50
72905;DHT22;61048;52.162;4.516;2023-02-25T09:47:32;14.30;55.40
72905;DHT22;61048;52.162;4.516;2023-02-25T09:50:07;14.30;55.50
72905;DHT22;61048;52.162;4.516;2023-02-25T09:52:39;14.30;55.40
72905;DHT22;61048;52.162;4.516;2023-02-25T09:55:17;14.40;55.50
72905;DHT22;61048;52.162;4.516;2023-02-25T09:57:51;14.40;55.40
72905;DHT22;61048;52.162;4.516;2023-02-25T10:00:21;14.40;55.40
72905;DHT22;61048;52.162;4.516;2023-02-25T10:02:53;14.40;55.30
72905;DHT22;61048;52.162;4.516;2023-02-25T10:05:25;14.40;55.20
72905;DHT22;61048;52.162;4.516;2023-02-25T10:08:09;14.40;55.40
72905;DHT22;61048;52.162;4.516;2023-02-25T10:10:46;14.40;55.30
72905;DHT22;61048;52.162;4.516;2023-02-25T10:13:24;14.30;55.20
72905;DHT22;61048;52.162;4.516;2023-02-25T10:16:01;14.30;55.20
72905;DHT22;61048;52.162;4.516;2023-02-25T10:18:42;14.30;55.10
72905;DHT22;61048;52.162;4.516;2023-02-25T10:21:21;14.30;54.70
72905;DHT22;61048;52.162;4.516;2023-02-25T10:24:02;14.30;54.70
72905;DHT22;61048;52.162;4.516;2023-02-25T10:26:35;14.20;54.90
72905;DHT22;61048;52.162;4.516;2023-02-25T10:29:05;14.20;54.90
72905;DHT22;61048;52.162;4.516;2023-02-25T10:31:32;14.20;54.90
72905;DHT22;61048;52.162;4.516;2023-02-25T10:34:17;14.20;54.70
72905;DHT22;61048;52.162;4.516;2023-02-25T10:36:49;14.20;54.50
72905;DHT22;61048;52.162;4.516;2023-02-25T10:39:18;14.20;54.70
72905;DHT22;61048;52.162;4.516;2023-02-25T10:41:45;14.20;54.50
72905;DHT22;61048;52.162;4.516;2023-02-25T10:44:14;14.20;54.40
72905;DHT22;61048;52.162;4.516;2023-02-25T10:46:45;14.20;54.40
72905;DHT22;61048;52.162;4.516;2023-02-25T10:49:17;14.20;54.10
72905;DHT22;61048;52.162;4.516;2023-02-25T10:52:03;14.20;54.70
72905;DHT22;61048;52.162;4.516;2023-02-25T10:54:31;14.20;54.70
72905;DHT22;61048;52.162;4.516;2023-02-25T10:57:00;14.20;54.40
72905;DHT22;61048;52.162;4.516;2023-02-25T10:59:30;14.20;54.30
72905;DHT22;61048;52.162;4.516;2023-02-25T11:02:00;14.20;53.80
72905;DHT22;61048;52.162;4.516;2023-02-25T11:04:33;14.20;53.60
72905;DHT22;61048;52.162;4.516;2023-02-25T11:07:01;14.20;54.10
72905;DHT22;61048;52.162;4.516;2023-02-25T11:09:48;14.20;54.30
72905;DHT22;61048;52.162;4.516;2023-02-25T11:12:31;14.20;54.20
72905;DHT22;61048;52.162;4.516;2023-02-25T11:15:17;14.20;53.60
72905;DHT22;61048;52.162;4.516;2023-02-25T11:17:46;14.20;53.70
72905;DHT22;61048;52.162;4.516;2023-02-25T11:20:23;14.20;54.00
72905;DHT22;61048;52.162;4.516;2023-02-25T11:22:52;14.20;53.80
72905;DHT22;61048;52.162;4.516;2023-02-25T11:25:34;14.20;53.40
72905;DHT22;61048;52.162;4.516;2023-02-25T11:28:02;14.10;53.50
72905;DHT22;61048;52.162;4.516;2023-02-25T11:30:35;14.10;53.40
72905;DHT22;61048;52.162;4.516;2023-02-25T11:33:07;14.10;53.40
72905;DHT22;61048;52.162;4.516;2023-02-25T11:35:37;14.10;53.70
72905;DHT22;61048;52.162;4.516;2023-02-25T11:38:15;14.10;53.50
72905;DHT22;61048;52.162;4.516;2023-02-25T11:40:44;14.10;54.00
72905;DHT22;61048;52.162;4.516;2023-02-25T11:43:17;14.10;53.50
72905;DHT22;61048;52.162;4.516;2023-02-25T11:45:55;14.10;53.50
72905;DHT22;61048;52.162;4.516;2023-02-25T11:48:28;14.00;53.60
72905;DHT22;61048;52.162;4.516;2023-02-25T11:51:13;14.00;53.30
72905;DHT22;61048;52.162;4.516;2023-02-25T11:54:03;14.00;53.30
72905;DHT22;61048;52.162;4.516;2023-02-25T11:56:36;14.00;53.60
72905;DHT22;61048;52.162;4.516;2023-02-25T11:59:25;14.00;53.20
72905;DHT22;61048;52.162;4.516;2023-02-25T12:02:21;14.00;53.50
72905;DHT22;61048;52.162;4.516;2023-02-25T12:08:18;14.00;53.60
72905;DHT22;61048;52.162;4.516;2023-02-25T12:14:08;14.10;53.80
72905;DHT22;61048;52.162;4.516;2023-02-25T12:26:23;14.10;53.70
72905;DHT22;61048;52.162;4.516;2023-02-25T12:29:16;14.10;53.80
72905;DHT22;61048;52.162;4.516;2023-02-25T12:32:01;14.10;53.80
72905;DHT22;61048;52.162;4.516;2023-02-25T12:37:51;14.20;54.00
72905;DHT22;61048;52.162;4.516;2023-02-25T12:40:40;14.20;53.90
72905;DHT22;61048;52.162;4.516;2023-02-25T12:43:22;14.20;54.00
72905;DHT22;61048;52.162;4.516;2023-02-25T12:46:01;14.20;54.10
72905;DHT22;61048;52.162;4.516;2023-02-25T12:48:47;14.20;53.80
72905;DHT22;61048;52.162;4.516;2023-02-25T12:54:37;14.20;53.80
72905;DHT22;61048;52.162;4.516;2023-02-25T12:57:20;14.20;53.30
72905;DHT22;61048;52.162;4.516;2023-02-25T13:00:06;14.20;52.60
72905;DHT22;61048;52.162;4.516;2023-02-25T13:02:52;14.10;52.10
72905;DHT22;61048;52.162;4.516;2023-02-25T13:05:44;14.10;52.30
72905;DHT22;61048;52.162;4.516;2023-02-25T13:11:26;14.10;52.00
72905;DHT22;61048;52.162;4.516;2023-02-25T13:14:21;14.10;51.10
72905;DHT22;61048;52.162;4.516;2023-02-25T13:17:07;14.10;51.20
72905;DHT22;61048;52.162;4.516;2023-02-25T13:20:13;14.10;51.00
72905;DHT22;61048;52.162;4.516;2023-02-25T13:22:53;14.10;50.40
72905;DHT22;61048;52.162;4.516;2023-02-25T13:25:30;14.00;50.70
72905;DHT22;61048;52.162;4.516;2023-02-25T13:28:16;14.10;50.30
72905;DHT22;61048;52.162;4.516;2023-02-25T13:30:51;14.00;50.30
72905;DHT22;61048;52.162;4.516;2023-02-25T13:33:37;14.00;49.70
72905;DHT22;61048;52.162;4.516;2023-02-25T13:36:22;14.00;50.30
72905;DHT22;61048;52.162;4.516;2023-02-25T13:39:06;14.00;50.80
72905;DHT22;61048;52.162;4.516;2023-02-25T13:41:49;14.10;50.30
72905;DHT22;61048;52.162;4.516;2023-02-25T13:44:36;14.10;50.70
72905;DHT22;61048;52.162;4.516;2023-02-25T13:47:31;14.10;50.30
72905;DHT22;61048;52.162;4.516;2023-02-25T13:50:32;14.10;50.20
72905;DHT22;61048;52.162;4.516;2023-02-25T13:53:15;14.10;50.20
72905;DHT22;61048;52.162;4.516;2023-02-25T13:59:16;14.00;50.30
72905;DHT22;61048;52.162;4.516;2023-02-25T14:04:50;14.10;50.00
72905;DHT22;61048;52.162;4.516;2023-02-25T14:07:46;14.10;50.20
72905;DHT22;61048;52.162;4.516;2023-02-25T14:10:24;14.00;50.10
72905;DHT22;61048;52.162;4.516;2023-02-25T14:13:10;14.00;50.10
72905;DHT22;61048;52.162;4.516;2023-02-25T14:15:50;14.00;49.90
72905;DHT22;61048;52.162;4.516;2023-02-25T14:18:42;14.00;50.00
72905;DHT22;61048;52.162;4.516;2023-02-25T14:21:24;14.00;49.90
72905;DHT22;61048;52.162;4.516;2023-02-25T14:23:57;14.00;49.90
72905;DHT22;61048;52.162;4.516;2023-02-25T14:26:35;14.00;50.10
72905;DHT22;61048;52.162;4.516;2023-02-25T14:29:17;14.10;49.90
72905;DHT22;61048;52.162;4.516;2023-02-25T14:32:11;14.00;48.60
72905;DHT22;61048;52.162;4.516;2023-02-25T14:34:49;13.90;48.90
72905;DHT22;61048;52.162;4.516;2023-02-25T14:37:30;14.00;48.90
72905;DHT22;61048;52.162;4.516;2023-02-25T14:40:18;14.00;49.30
72905;DHT22;61048;52.162;4.516;2023-02-25T14:43:07;14.00;49.20
72905;DHT22;61048;52.162;4.516;2023-02-25T14:45:41;14.00;49.30
72905;DHT22;61048;52.162;4.516;2023-02-25T14:48:15;14.00;49.40
72905;DHT22;61048;52.162;4.516;2023-02-25T14:50:47;14.00;48.70
72905;DHT22;61048;52.162;4.516;2023-02-25T14:53:25;14.00;48.90
72905;DHT22;61048;52.162;4.516;2023-02-25T15:01:42;14.00;48.40
72905;DHT22;61048;52.162;4.516;2023-02-25T15:04:30;13.90;48.50
72905;DHT22;61048;52.162;4.516;2023-02-25T15:07:19;14.00;48.50
72905;DHT22;61048;52.162;4.516;2023-02-25T15:13:09;13.90;48.00
72905;DHT22;61048;52.162;4.516;2023-02-25T15:19:08;13.90;47.70
72905;DHT22;61048;52.162;4.516;2023-02-25T15:21:42;13.90;47.70
72905;DHT22;61048;52.162;4.516;2023-02-25T15:24:37;13.90;47.70
72905;DHT22;61048;52.162;4.516;2023-02-25T15:30:19;13.90;47.90
72905;DHT22;61048;52.162;4.516;2023-02-25T15:32:57;13.90;47.50
72905;DHT22;61048;52.162;4.516;2023-02-25T15:35:53;13.90;47.70
72905;DHT22;61048;52.162;4.516;2023-02-25T15:38:21;13.90;47.70
72905;DHT22;61048;52.162;4.516;2023-02-25T15:41:36;13.80;47.60
72905;DHT22;61048;52.162;4.516;2023-02-25T15:47:24;13.80;47.50
72905;DHT22;61048;52.162;4.516;2023-02-25T15:49:52;13.80;47.70
72905;DHT22;61048;52.162;4.516;2023-02-25T15:52:51;13.80;48.10
72905;DHT22;61048;52.162;4.516;2023-02-25T15:55:31;13.80;47.90
72905;DHT22;61048;52.162;4.516;2023-02-25T15:57:58;13.80;48.10
72905;DHT22;61048;52.162;4.516;2023-02-25T16:00:53;13.80;47.70
72905;DHT22;61048;52.162;4.516;2023-02-25T16:03:39;13.80;47.80
72905;DHT22;61048;52.162;4.516;2023-02-25T16:06:11;13.80;47.70
72905;DHT22;61048;52.162;4.516;2023-02-25T16:08:44;13.80;47.70
72905;DHT22;61048;52.162;4.516;2023-02-25T16:11:21;13.70;47.60
72905;DHT22;61048;52.162;4.516;2023-02-25T16:13:50;13.70;47.20
72905;DHT22;61048;52.162;4.516;2023-02-25T16:16:18;13.70;47.50
72905;DHT22;61048;52.162;4.516;2023-02-25T16:18:48;13.70;47.20
72905;DHT22;61048;52.162;4.516;2023-02-25T16:21:21;13.70;47.50
72905;DHT22;61048;52.162;4.516;2023-02-25T16:23:49;13.70;47.20
72905;DHT22;61048;52.162;4.516;2023-02-25T16:26:28;13.70;47.50
72905;DHT22;61048;52.162;4.516;2023-02-25T16:29:04;13.70;47.40
72905;DHT22;61048;52.162;4.516;2023-02-25T16:31:36;13.70;47.40
72905;DHT22;61048;52.162;4.516;2023-02-25T16:34:13;13.70;47.70
72905;DHT22;61048;52.162;4.516;2023-02-25T16:36:48;13.60;47.60
72905;DHT22;61048;52.162;4.516;2023-02-25T16:39:19;13.60;47.50
72905;DHT22;61048;52.162;4.516;2023-02-25T16:41:48;13.60;47.80
72905;DHT22;61048;52.162;4.516;2023-02-25T16:44:18;13.60;47.60
72905;DHT22;61048;52.162;4.516;2023-02-25T16:46:48;13.60;47.60
72905;DHT22;61048;52.162;4.516;2023-02-25T16:49:20;13.60;47.70
72905;DHT22;61048;52.162;4.516;2023-02-25T16:51:51;13.60;47.60
72905;DHT22;61048;52.162;4.516;2023-02-25T16:54:20;13.60;47.70
72905;DHT22;61048;52.162;4.516;2023-02-25T16:56:52;13.60;47.80